Dauntless Aviation
Airports Europe United Kingdom
EGLC
LCY

London City

London, UNITED KINGDOM

Airport Info
Suggest Updated Information for this Airport

Location

Latitude / Longitude: 51°30'18"N / 0°3'12"E
  51°30.3'N / 0°3.21'E
  51.5050 / 0.0535

Nearby radio navigation aids

LCY CITY NDB on field.

Runway Information

Runway 10 /28

Dimensions: 4948 x 98 ft.
Surface: ASP
 
Runway 10
Runway 28
Latitude: 51.505528 51.504922
Longitude: 0.045753 0.064953
Elevation: 16 ft. 16 ft.
Runway true heading: 91.1 271.1
 

Instrument Procedures

  Control Zone and Control Area Chart
  Aircraft Parking/Docking Chart
  Aerodrome Chart

STARs (Standard Terminal Arrivals)

  STAR via SPEAR (Northwest)
  STAR via ALKIN (South)
  STAR via SPEAR (East)
  STAR via SPEAR (West)
  STAR via SPEAR (Alternate Holding at LOGAN and ALKIN)

IAPs (Instrument Approach Procedures)

  LOC/DME/NDB (L) Rwy 27 (Aircraft CAT A/B/C)
  Visual Approach Profile Rwy 27
  ILS (5.5°GP) /DME/NDB (L) Rwy 27 (Aircraft CAT A/B/C)
  Visual Approach Profile Rwy 09
  LOC/DME/NDB (L) Rwy 09
  ATC Surveillance Minimum Altitude Chart
  ILS (5.5°GP) /DME/NDB (L) Rwy 09 (Aircraft CAT A/B/C)

Departure Procedures

  SID DOVER/LYDD
  SID CLACTON
  SID SOUTHAMPTON
  SID BROOKMANS PARK/COMPTON
Satellite photo at:
Airport distance calculator
From:
Weather Reports

METAR

EGLC

EGLC 261720Z 19009KT 140V200 9999 FEW035 18/10 Q1022
EGKB
11.4nm S
EGKB 261720Z 20008KT 9999 FEW035 15/10 Q1022
EGWU
17.8nm W
EGWU 261650Z 20008KT 9999 FEW032 BKN120 17/08 Q1021 NOSIG
EGLL
18.9nm SW
EGLL 261720Z AUTO 18009KT 160V220 9999 NCD 16/10 Q1021
EGSS
23.5nm N
EGSS 261720Z AUTO 15004KT 130V190 9999 NCD 15/12 Q1021
EGKK
23.8nm S
EGKK 261720Z 18004KT 140V220 9999 FEW025 16/11 Q1022

TAF

EGLC
TAF EGLC 261403Z 2615/2621 20006KT 9999 FEW035 SCT048
EGKB
11.4nm S
TAF EGKB 261403Z 2615/2620 18009KT 9999 FEW030 SCT045
EGWU
17.8nm W
TAF EGWU 261330Z 2615/2709 22008KT 9999 SCT040 PROB30 TEMPO 2615/2616 7000 SHRA SCT020 PROB30 TEMPO 2701/2706 6000 RA BECMG 2706/2709 BKN010
EGLL
18.9nm SW
TAF EGLL 261059Z 2612/2718 20010KT 9999 SCT028 PROB30 TEMPO 2612/2616 8000 SHRA TEMPO 2623/2709 6000 -RADZ SCT008 BKN014 BECMG 2709/2712 6000 -RADZ SCT004 BKN009 PROB40 TEMPO 2711/2716 4200 RADZ BKN004
EGSS
23.5nm N
TAF AMD EGSS 261327Z 2613/2718 18006KT 9999 FEW030 SCT045 TEMPO 2613/2615 20015G25KT 7000 SHRA PROB40 TEMPO 2703/2708 7000 RA BECMG 2707/2710 BKN010 PROB40 TEMPO 2708/2712 3500 -DZ BKN006 TEMPO 2712/2717 3500 -DZ BKN006 PROB30 TEMPO 2714/2717 BKN003 BECMG 2715/2718 24010KT
EGKK
23.8nm S
TAF EGKK 261058Z 2612/2718 19006KT 9999 SCT025 PROB40 TEMPO 2612/2615 8000 SHRA PROB40 TEMPO 2701/2710 7000 -RADZ BECMG 2708/2711 BKN009 TEMPO 2710/2718 5000 -RADZ PROB40 TEMPO 2712/2716 3000 RADZ BKN003
Safelog

 

Dauntless Aviation

© 2007-2016 Dauntless Aviation, all rights reserved
Information provided via PilotNav comes from a variety of official and unofficial data sources. As errors are possible, do not use PilotNav for primary flight planning purposes. Verify any information that you receive via PilotNav with current and canonical charts and other official documents. The material in this database is subject to database copyrights held by Dauntless Aviation and may not be copied without the express permission of Dauntless Aviation - licenses for use of part of all of this data are available for purchase; enquire via the Dauntless Aviation helpdesk. A number of mechanisms and markers exist in the database to protect against and identify infringement / copyright. Automated queries against this website are stictly prohibited, and all activity is logged and analyzed.